Startpagina
METAR-TAF:

METAR-TAF

Vliegvelden :

Bonriki International Airport

Tarawa, Kiribati

breedte: 01-21N, lengte: 172-55E, hoogte: 2 m

Actueel weer

Dit bericht is 52 minuten geleden gemaakt, om 21:00 UTC
Wind 12 kt uit het oostzuidoosten
Temperatuur 29°C
Vochtigheid 84%
Druk 1008 hPa
Zicht 10 km of meer
Verspreide wolken op 2000 ft
Gebroken wolken op 30000 ft

METAR: NGTA 162100Z 12012KT 9999 SCT020 BKN300 29/26 Q1008

Tijdstip: 11:52 (21:52 UTC)

Verwachting

Dit bericht is 4 uur en het 47 minuten geleden gemaakt, om 17:05 UTC
Verwachting geldig van 16 om 18 UTC tot 17 om 18 UTC
Wind 10 kt uit het oosten
Zicht 10 km of meer
Verspreide wolken op 1800 ft
Gebroken wolken op 10000 ft
Kans 30% :
Tijdelijke
van 16 om 18 UTC tot 17 om 04 UTC
Zicht: 5000 m
Weinig wolken op 1700 ft, Cumulonimbus.
onweer, regen

TAF: NGTA 161705Z 1618/1718 10010KT 9999 SCT018 BKN100 PROB30 TEMPO 1618/1704 5000 TSRA FEW017CB

Waarnemingen en weersverwachtingen van meer dan 4000 vliegvelden (METAR en TAF).

De beschikbare stations zijn de gele en rode punten op de kaart.

Ga met uw muis naar het station om de naam te zien.

Klik dan om waarnemingen en weersverwachtingen te zien.

kaart wijzigen: klik op de groene knoppen met een zwart kruis om in te zoomen, op de groene knop met een streepje om uit te zoomen of op de groene pijlen voor aangrenzende kaarten.


METAR-TAF: